Brevik Bridge — VRHY7 — position and weather

sailwx.info

Track history (hours):
 
Tides and Currents Weather Stations Pressure Air Temp Water Temp Dewpoint Dewpoint Depression Visibility Wind Speed Wind Dir Waves Ship Positions

Brevik Bridge

Last reported at 2017-May-29 14:46 UTC. Time now 2017-May-30 01:29 UTC.
Position N 39°45' W 073°52'.

Length 268 m; draft 10.4 m.

Type: Ship (hazmat cat B). MMSI: 477866200.

Date/timePositionNaut miles runAvg speedWind from/ knotsBaromVisibWave heightAir tempDewpointWater temp
2017-May-29 14:46N 39°45' W 073°52'311.8
2017-May-29 14:29N 39°48' W 073°51'3111.1
2017-May-29 11:44N 40°19' W 073°49'2 8.8
2017-May-29 11:29N 40°21' W 073°49'4 9.1
2017-May-29 11:00N 40°25' W 073°49'4 8.5
2017-May-29 10:30N 40°28' W 073°53'5 9.8
2017-May-29 10:00N 40°31' W 073°59'4 8.8
2017-May-29 09:31N 40°34' W 074°02'510.7
2017-May-29 09:00N 40°39' W 074°05'3 6.4
2017-May-29 08:30N 40°39' W 074°10'1 2.4
2017-May-29 07:59N 40°39' W 074°11'0 0.0
2017-May-29 07:29N 40°39' W 074°11'0 0.0
2017-May-29 06:59N 40°39' W 074°11'0 0.0
2017-May-29 06:29N 40°39' W 074°11'0 0.0
2017-May-29 05:59N 40°39' W 074°11'0 0.0
2017-May-29 05:29N 40°39' W 074°11'0 0.0
2017-May-29 04:59N 40°39' W 074°11'0 0.0
2017-May-29 04:29N 40°39' W 074°11'0 0.0
2017-May-29 03:59N 40°39' W 074°11'0 0.0
2017-May-29 03:29N 40°39' W 074°11'0 0.0
2017-May-29 02:59N 40°39' W 074°11'0 0.0
2017-May-29 02:29N 40°39' W 074°11'0 0.0
2017-May-29 01:59N 40°39' W 074°11'0 0.0
2017-May-29 01:29N 40°39' W 074°11'0 0.0
2017-May-29 00:59N 40°39' W 074°11'0 0.0
2017-May-29 00:29N 40°39' W 074°11'0 0.0
2017-May-28 23:59N 40°39' W 074°11'0 0.0
2017-May-28 23:29N 40°39' W 074°11'0 0.0
2017-May-28 22:59N 40°39' W 074°11'0 0.0
2017-May-28 22:29N 40°39' W 074°11'0 0.0
2017-May-28 21:53N 40°39' W 074°11'0 0.0
2017-May-28 21:23N 40°39' W 074°11'0 0.0
2017-May-28 20:56N 40°39' W 074°11'0 0.0
2017-May-28 20:29N 40°39' W 074°11'0 0.0
2017-May-28 19:59N 40°39' W 074°11'0 0.0
2017-May-28 19:29N 40°39' W 074°11'0 0.0
2017-May-28 18:59N 40°39' W 074°11'0 0.0
2017-May-28 18:29N 40°39' W 074°11'0 0.0
2017-May-28 17:59N 40°39' W 074°11'0 0.0
2017-May-28 17:29N 40°39' W 074°11'0 0.0
2017-May-28 16:59N 40°39' W 074°11'0 0.0
2017-May-28 16:29N 40°39' W 074°11'0 0.0
2017-May-28 15:59N 40°39' W 074°11'1 1.9
2017-May-28 15:30N 40°39' W 074°10'4 7.6
2017-May-28 15:00N 40°39' W 074°05'8 8.2
2017-May-28 14:00N 40°32' W 074°01'5 9.8
2017-May-28 13:30N 40°29' W 073°55'5 9.7
2017-May-28 13:00N 40°27' W 073°49'5 9.0
2017-May-28 12:29N 40°27' W 073°43'5 9.6
2017-May-28 12:00N 40°28' W 073°37'5 9.5
2017-May-28 11:30N 40°28' W 073°31'714.3
2017-May-28 10:59N 40°28' W 073°21'  
2017-May-22 16:40N 38°15' W 031°45'317.4
2017-May-22 16:29N 38°15' W 031°41'817.5
2017-May-22 16:00N 38°14' W 031°30'917.7
2017-May-22 15:31N 38°13' W 031°19'1017.3
2017-May-22 14:56N 38°12' W 031°06'2117.4
2017-May-22 13:43N 38°09' W 030°40'417.6
2017-May-22 13:30N 38°08' W 030°35'1017.6
2017-May-22 12:56N 38°06' W 030°23'1017.5
2017-May-22 12:21N 38°05' W 030°10'617.5
2017-May-22 12:00N 38°05' W 030°02'917.3
2017-May-22 11:30N 38°04' W 029°51'917.6
2017-May-22 11:00N 38°04' W 029°40'917.7
2017-May-22 10:30N 38°03' W 029°29'917.7
2017-May-22 10:00N 38°02' W 029°18'917.6
2017-May-22 09:30N 38°02' W 029°06'917.5
2017-May-22 09:01N 38°01' W 028°55'917.6
2017-May-22 08:30N 38°00' W 028°44'917.5
2017-May-22 08:00N 37°60' W 028°33'917.9
2017-May-22 07:30N 37°59' W 028°22'918.0
2017-May-22 07:00N 37°58' W 028°10'918.2
2017-May-22 06:30N 37°58' W 027°59'918.1
2017-May-22 06:00N 37°57' W 027°47'917.8
2017-May-22 05:30N 37°57' W 027°36'918.0
2017-May-22 05:01N 37°56' W 027°25'917.1
2017-May-22 04:30N 37°54' W 027°14'816.9
2017-May-22 04:00N 37°52' W 027°04'917.2
2017-May-22 03:31N 37°50' W 026°53'816.9
2017-May-22 03:00N 37°48' W 026°43'816.9
2017-May-22 02:30N 37°47' W 026°32'817.0
2017-May-22 02:00N 37°45' W 026°22'816.9
2017-May-22 01:31N 37°43' W 026°12'917.1
2017-May-22 01:00N 37°41' W 026°01'917.2
2017-May-22 00:30N 37°39' W 025°50'817.0
2017-May-22 00:01N 37°37' W 025°40'917.0
2017-May-21 23:30N 37°35' W 025°29'917.2
2017-May-21 23:00N 37°33' W 025°19'817.0
2017-May-21 22:30N 37°32' W 025°08'816.8
2017-May-21 22:00N 37°30' W 024°58'816.8
2017-May-21 21:30N 37°29' W 024°47'816.5
2017-May-21 21:01N 37°28' W 024°37'816.8
2017-May-21 20:30N 37°27' W 024°27'816.9
2017-May-21 20:00N 37°27' W 024°16'816.8
2017-May-21 19:30N 37°26' W 024°05'917.1
2017-May-21 19:00N 37°25' W 023°55'817.0
2017-May-21 18:30N 37°24' W 023°44'816.9
2017-May-21 18:00N 37°23' W 023°34'816.7
2017-May-21 17:30N 37°22' W 023°23'816.9
2017-May-21 17:00N 37°21' W 023°13'916.8
2017-May-21 16:29N 37°20' W 023°02'816.9
2017-May-21 16:00N 37°19' W 022°51'1416.8
2017-May-21 15:12N 37°18' W 022°34'59517.2
2017-May-20 04:41N 36°17' W 010°15'317.5
2017-May-20 04:30N 36°17' W 010°12'917.7
2017-May-20 04:00N 36°16' W 010°01'3217.8
2017-May-20 02:11N 36°13' W 009°21'517.1
2017-May-20 01:54N 36°12' W 009°15'717.7
2017-May-20 01:30N 36°11' W 009°06'3117.7
2017-May-19 23:45N 36°08' W 008°28'517.6
2017-May-19 23:27N 36°07' W 008°21'817.6
2017-May-19 22:59N 36°07' W 008°11'10017.0
2017-May-19 17:07N 35°57' W 006°09'317.4
2017-May-19 16:58N 35°57' W 006°05'2213.5
2017-May-19 15:19N 35°58' W 005°38'412.8
2017-May-19 15:00N 35°59' W 005°33'  
Track history (hours):
 
Tides and Currents Weather Stations Pressure Air Temp Water Temp Dewpoint Dewpoint Depression Visibility Wind Speed Wind Dir Waves Ship Positions

Brevik Bridge

Last reported at 2017-May-29 14:46 UTC. Time now 2017-May-30 01:29 UTC.
Position N 39°45' W 073°52'.

Length 268 m; draft 10.4 m.

Type: Ship (hazmat cat B). MMSI: 477866200.

Date/timePositionNaut miles runAvg speedWind from/ knotsBaromVisibWave heightAir tempDewpointWater temp
2017-May-29 14:46N 39°45' W 073°52'311.8
2017-May-29 14:29N 39°48' W 073°51'3111.1
2017-May-29 11:44N 40°19' W 073°49'2 8.8
2017-May-29 11:29N 40°21' W 073°49'4 9.1
2017-May-29 11:00N 40°25' W 073°49'4 8.5
2017-May-29 10:30N 40°28' W 073°53'5 9.8
2017-May-29 10:00N 40°31' W 073°59'4 8.8
2017-May-29 09:31N 40°34' W 074°02'510.7
2017-May-29 09:00N 40°39' W 074°05'3 6.4
2017-May-29 08:30N 40°39' W 074°10'1 2.4
2017-May-29 07:59N 40°39' W 074°11'0 0.0
2017-May-29 07:29N 40°39' W 074°11'0 0.0
2017-May-29 06:59N 40°39' W 074°11'0 0.0
2017-May-29 06:29N 40°39' W 074°11'0 0.0
2017-May-29 05:59N 40°39' W 074°11'0 0.0
2017-May-29 05:29N 40°39' W 074°11'0 0.0
2017-May-29 04:59N 40°39' W 074°11'0 0.0
2017-May-29 04:29N 40°39' W 074°11'0 0.0
2017-May-29 03:59N 40°39' W 074°11'0 0.0
2017-May-29 03:29N 40°39' W 074°11'0 0.0
2017-May-29 02:59N 40°39' W 074°11'0 0.0
2017-May-29 02:29N 40°39' W 074°11'0 0.0
2017-May-29 01:59N 40°39' W 074°11'0 0.0
2017-May-29 01:29N 40°39' W 074°11'0 0.0
2017-May-29 00:59N 40°39' W 074°11'0 0.0
2017-May-29 00:29N 40°39' W 074°11'0 0.0
2017-May-28 23:59N 40°39' W 074°11'0 0.0
2017-May-28 23:29N 40°39' W 074°11'0 0.0
2017-May-28 22:59N 40°39' W 074°11'0 0.0
2017-May-28 22:29N 40°39' W 074°11'0 0.0
2017-May-28 21:53N 40°39' W 074°11'0 0.0
2017-May-28 21:23N 40°39' W 074°11'0 0.0
2017-May-28 20:56N 40°39' W 074°11'0 0.0
2017-May-28 20:29N 40°39' W 074°11'0 0.0
2017-May-28 19:59N 40°39' W 074°11'0 0.0
2017-May-28 19:29N 40°39' W 074°11'0 0.0
2017-May-28 18:59N 40°39' W 074°11'0 0.0
2017-May-28 18:29N 40°39' W 074°11'0 0.0
2017-May-28 17:59N 40°39' W 074°11'0 0.0
2017-May-28 17:29N 40°39' W 074°11'0 0.0
2017-May-28 16:59N 40°39' W 074°11'0 0.0
2017-May-28 16:29N 40°39' W 074°11'0 0.0
2017-May-28 15:59N 40°39' W 074°11'1 1.9
2017-May-28 15:30N 40°39' W 074°10'4 7.6
2017-May-28 15:00N 40°39' W 074°05'8 8.2
2017-May-28 14:00N 40°32' W 074°01'5 9.8
2017-May-28 13:30N 40°29' W 073°55'5 9.7
2017-May-28 13:00N 40°27' W 073°49'5 9.0
2017-May-28 12:29N 40°27' W 073°43'5 9.6
2017-May-28 12:00N 40°28' W 073°37'5 9.5
2017-May-28 11:30N 40°28' W 073°31'714.3
2017-May-28 10:59N 40°28' W 073°21'  
2017-May-22 16:40N 38°15' W 031°45'317.4
2017-May-22 16:29N 38°15' W 031°41'817.5
2017-May-22 16:00N 38°14' W 031°30'917.7
2017-May-22 15:31N 38°13' W 031°19'1017.3
2017-May-22 14:56N 38°12' W 031°06'2117.4
2017-May-22 13:43N 38°09' W 030°40'417.6
2017-May-22 13:30N 38°08' W 030°35'1017.6
2017-May-22 12:56N 38°06' W 030°23'1017.5
2017-May-22 12:21N 38°05' W 030°10'617.5
2017-May-22 12:00N 38°05' W 030°02'917.3
2017-May-22 11:30N 38°04' W 029°51'917.6
2017-May-22 11:00N 38°04' W 029°40'917.7
2017-May-22 10:30N 38°03' W 029°29'917.7
2017-May-22 10:00N 38°02' W 029°18'917.6
2017-May-22 09:30N 38°02' W 029°06'917.5
2017-May-22 09:01N 38°01' W 028°55'917.6
2017-May-22 08:30N 38°00' W 028°44'917.5
2017-May-22 08:00N 37°60' W 028°33'917.9
2017-May-22 07:30N 37°59' W 028°22'918.0
2017-May-22 07:00N 37°58' W 028°10'918.2
2017-May-22 06:30N 37°58' W 027°59'918.1
2017-May-22 06:00N 37°57' W 027°47'917.8
2017-May-22 05:30N 37°57' W 027°36'918.0
2017-May-22 05:01N 37°56' W 027°25'917.1
2017-May-22 04:30N 37°54' W 027°14'816.9
2017-May-22 04:00N 37°52' W 027°04'917.2
2017-May-22 03:31N 37°50' W 026°53'816.9
2017-May-22 03:00N 37°48' W 026°43'816.9
2017-May-22 02:30N 37°47' W 026°32'817.0
2017-May-22 02:00N 37°45' W 026°22'816.9
2017-May-22 01:31N 37°43' W 026°12'917.1
2017-May-22 01:00N 37°41' W 026°01'917.2
2017-May-22 00:30N 37°39' W 025°50'817.0
2017-May-22 00:01N 37°37' W 025°40'917.0
2017-May-21 23:30N 37°35' W 025°29'917.2
2017-May-21 23:00N 37°33' W 025°19'817.0
2017-May-21 22:30N 37°32' W 025°08'816.8
2017-May-21 22:00N 37°30' W 024°58'816.8
2017-May-21 21:30N 37°29' W 024°47'816.5
2017-May-21 21:01N 37°28' W 024°37'816.8
2017-May-21 20:30N 37°27' W 024°27'816.9
2017-May-21 20:00N 37°27' W 024°16'816.8
2017-May-21 19:30N 37°26' W 024°05'917.1
2017-May-21 19:00N 37°25' W 023°55'817.0
2017-May-21 18:30N 37°24' W 023°44'816.9
2017-May-21 18:00N 37°23' W 023°34'816.7
2017-May-21 17:30N 37°22' W 023°23'816.9
2017-May-21 17:00N 37°21' W 023°13'916.8
2017-May-21 16:29N 37°20' W 023°02'816.9
2017-May-21 16:00N 37°19' W 022°51'1416.8
2017-May-21 15:12N 37°18' W 022°34'59517.2
2017-May-20 04:41N 36°17' W 010°15'317.5
2017-May-20 04:30N 36°17' W 010°12'917.7
2017-May-20 04:00N 36°16' W 010°01'3217.8
2017-May-20 02:11N 36°13' W 009°21'517.1
2017-May-20 01:54N 36°12' W 009°15'717.7
2017-May-20 01:30N 36°11' W 009°06'3117.7
2017-May-19 23:45N 36°08' W 008°28'517.6
2017-May-19 23:27N 36°07' W 008°21'817.6
2017-May-19 22:59N 36°07' W 008°11'10017.0
2017-May-19 17:07N 35°57' W 006°09'317.4
2017-May-19 16:58N 35°57' W 006°05'2213.5
2017-May-19 15:19N 35°58' W 005°38'412.8
2017-May-19 15:00N 35°59' W 005°33'  

Dump ship's entire track history